createdAt,value
2023-02-12T00:01:28.790Z,21.38
2023-02-12T00:03:56.864Z,26.10
2023-02-12T00:06:26.011Z,40.88
2023-02-12T00:08:54.332Z,26.90
2023-02-12T00:11:23.403Z,24.88
2023-02-12T00:13:51.239Z,24.85
2023-02-12T00:16:20.190Z,22.60
2023-02-12T00:18:48.216Z,30.73
2023-02-12T00:21:17.292Z,33.50
2023-02-12T00:23:46.488Z,29.08
2023-02-12T00:26:15.240Z,31.33
2023-02-12T00:28:43.218Z,33.88
2023-02-12T00:31:12.283Z,26.45
2023-02-12T00:33:40.056Z,30.33
2023-02-12T00:36:08.294Z,33.22
2023-02-12T00:38:36.157Z,28.55
2023-02-12T00:41:06.020Z,22.00
2023-02-12T00:43:33.687Z,23.67
2023-02-12T00:46:01.432Z,23.48
2023-02-12T00:48:29.560Z,25.00
2023-02-12T00:50:57.293Z,23.98
2023-02-12T00:53:27.397Z,21.20
2023-02-12T00:55:55.305Z,22.73
2023-02-12T00:58:24.712Z,18.75
2023-02-12T01:00:54.232Z,17.00
2023-02-12T01:03:22.446Z,15.52
2023-02-12T01:05:50.134Z,33.95
2023-02-12T01:08:17.992Z,37.75
2023-02-12T01:10:46.073Z,25.40
2023-02-12T01:13:14.289Z,38.00
2023-02-12T01:15:43.596Z,32.80
2023-02-12T01:18:11.440Z,23.70
2023-02-12T01:20:40.603Z,20.25
2023-02-12T01:23:08.628Z,22.42
2023-02-12T01:25:36.280Z,46.00
2023-02-12T01:28:04.027Z,19.33
2023-02-12T01:30:31.789Z,19.02
2023-02-12T01:33:01.334Z,21.77
2023-02-12T01:35:29.163Z,15.50
2023-02-12T01:37:58.408Z,16.77
2023-02-12T01:40:26.262Z,17.35
2023-02-12T01:42:53.906Z,15.38
2023-02-12T01:45:41.287Z,15.00
2023-02-12T01:48:10.310Z,16.85
2023-02-12T01:50:38.046Z,18.30
2023-02-12T01:53:05.790Z,17.52
2023-02-12T01:55:33.494Z,17.63
2023-02-12T01:58:01.187Z,19.45
2023-02-12T02:00:28.894Z,16.00
2023-02-12T02:02:59.339Z,20.90
2023-02-12T02:05:32.484Z,17.15
2023-02-12T02:08:00.290Z,20.77
2023-02-12T02:10:27.991Z,19.48
2023-02-12T02:13:14.097Z,14.98
2023-02-12T02:15:42.596Z,18.08
2023-02-12T02:18:13.387Z,16.25
2023-02-12T02:20:58.676Z,18.30
2023-02-12T02:23:38.846Z,17.23
2023-02-12T02:26:20.381Z,15.63
2023-02-12T02:28:56.512Z,17.45
2023-02-12T02:31:27.826Z,16.67
2023-02-12T02:33:58.474Z,13.32
2023-02-12T02:36:29.191Z,15.57
2023-02-12T02:38:58.413Z,15.27
2023-02-12T02:41:30.197Z,16.23
2023-02-12T02:43:57.938Z,16.05
2023-02-12T02:46:29.336Z,17.02
2023-02-12T02:48:59.491Z,22.63
2023-02-12T02:51:28.803Z,17.10
2023-02-12T02:53:59.400Z,17.75
2023-02-12T02:56:28.512Z,19.80
2023-02-12T02:58:57.887Z,18.02
2023-02-12T03:01:28.261Z,13.18
2023-02-12T03:04:01.378Z,15.23
2023-02-12T03:06:31.652Z,15.32
2023-02-12T03:09:00.295Z,17.80
2023-02-12T03:11:29.285Z,14.82
2023-02-12T03:13:59.681Z,17.50
2023-02-12T03:16:28.671Z,18.52
2023-02-12T03:19:01.879Z,20.08
2023-02-12T03:21:32.471Z,20.08
2023-02-12T03:24:03.051Z,17.70
2023-02-12T03:26:38.690Z,17.83
2023-02-12T03:29:06.381Z,16.48
2023-02-12T03:31:38.990Z,19.08
2023-02-12T03:34:11.640Z,17.92
2023-02-12T03:36:43.615Z,20.48
2023-02-12T03:39:14.108Z,19.55
2023-02-12T03:41:44.022Z,18.52
2023-02-12T03:44:16.838Z,15.00
2023-02-12T03:46:48.104Z,19.13
2023-02-12T03:49:21.520Z,21.42
2023-02-12T03:51:49.576Z,18.05
2023-02-12T03:54:19.021Z,18.23
2023-02-12T03:56:52.114Z,19.25
2023-02-12T03:59:20.099Z,19.30
2023-02-12T04:01:48.870Z,24.25
2023-02-12T04:04:18.536Z,25.77
2023-02-12T04:06:47.084Z,17.88
2023-02-12T04:09:15.309Z,22.40
2023-02-12T04:11:47.701Z,24.60
2023-02-12T04:14:19.155Z,23.77
2023-02-12T04:16:48.841Z,19.05
2023-02-12T04:19:22.624Z,21.85
2023-02-12T04:21:55.232Z,21.60
2023-02-12T04:24:29.545Z,22.88
2023-02-12T04:27:02.697Z,22.83
2023-02-12T04:29:33.758Z,26.95
2023-02-12T04:32:04.930Z,24.38
2023-02-12T04:34:36.599Z,23.92
2023-02-12T04:37:06.739Z,27.67
2023-02-12T04:39:37.088Z,26.95
2023-02-12T04:42:05.027Z,22.05
2023-02-12T04:44:33.695Z,24.73
2023-02-12T04:47:01.653Z,24.88
2023-02-12T04:49:29.635Z,27.70
2023-02-12T04:51:58.786Z,28.38
2023-02-12T04:54:26.474Z,22.27
2023-02-12T04:56:54.206Z,27.90
2023-02-12T04:59:21.975Z,24.00
2023-02-12T05:01:49.715Z,28.38
2023-02-12T05:04:18.278Z,22.20
2023-02-12T05:06:46.257Z,23.15
2023-02-12T05:09:16.829Z,23.80
2023-02-12T05:11:44.622Z,22.48
2023-02-12T05:14:12.606Z,25.38
2023-02-12T05:16:40.339Z,18.27
2023-02-12T05:19:09.611Z,15.90
2023-02-12T05:21:37.891Z,19.15
2023-02-12T05:24:05.886Z,18.58
2023-02-12T05:26:35.368Z,16.60
2023-02-12T05:29:03.416Z,18.02
2023-02-12T05:31:31.285Z,17.50
2023-02-12T05:33:59.884Z,20.83
2023-02-12T05:36:27.668Z,16.75
2023-02-12T05:38:58.461Z,22.38
2023-02-12T05:41:26.295Z,28.25
2023-02-12T05:43:55.367Z,28.20
2023-02-12T05:46:23.364Z,23.08
2023-02-12T05:48:51.108Z,29.98
2023-02-12T05:51:24.796Z,27.23
2023-02-12T05:53:53.645Z,28.05
2023-02-12T05:56:22.368Z,26.98
2023-02-12T05:58:52.724Z,29.23
2023-02-12T06:01:22.831Z,24.98
2023-02-12T06:03:50.574Z,27.98
2023-02-12T06:06:18.287Z,30.25
2023-02-12T06:08:48.646Z,23.55
2023-02-12T06:11:17.473Z,20.25
2023-02-12T06:13:45.908Z,18.75
2023-02-12T06:16:21.698Z,22.50
2023-02-12T06:18:49.509Z,18.95
2023-02-12T06:21:17.335Z,23.48
2023-02-12T06:23:44.964Z,24.13
2023-02-12T06:26:12.717Z,24.95
2023-02-12T06:28:40.446Z,25.15
2023-02-12T06:31:23.104Z,25.95
2023-02-12T06:33:52.618Z,27.10
2023-02-12T06:36:20.333Z,27.52
2023-02-12T06:38:48.009Z,24.85
2023-02-12T06:41:16.046Z,26.10
2023-02-12T06:43:43.942Z,29.58
2023-02-12T06:46:11.984Z,28.23
2023-02-12T06:48:39.680Z,27.85
2023-02-12T06:51:11.198Z,23.33
2023-02-12T06:53:39.778Z,21.63
2023-02-12T06:56:11.253Z,22.15
2023-02-12T06:58:39.314Z,18.52
2023-02-12T07:01:18.177Z,15.75
2023-02-12T07:03:46.198Z,20.30
2023-02-12T07:06:15.755Z,14.00
2023-02-12T07:08:43.484Z,18.63
2023-02-12T07:11:12.320Z,15.50
2023-02-12T07:13:41.386Z,17.15
2023-02-12T07:16:10.009Z,15.38
2023-02-12T07:18:38.124Z,15.88
2023-02-12T07:21:07.330Z,15.77
2023-02-12T07:23:36.468Z,14.63
2023-02-12T07:26:05.532Z,20.05
2023-02-12T07:28:34.019Z,18.75
2023-02-12T07:31:02.421Z,18.65
2023-02-12T07:33:31.358Z,20.52
2023-02-12T07:36:01.131Z,21.48
2023-02-12T07:38:29.776Z,17.77
2023-02-12T07:41:09.435Z,19.90
2023-02-12T07:43:38.228Z,20.30
2023-02-12T07:46:10.121Z,14.63
2023-02-12T07:48:44.030Z,19.08
2023-02-12T07:51:12.813Z,18.30
2023-02-12T07:53:40.552Z,21.48
2023-02-12T07:56:16.375Z,16.08
2023-02-12T07:58:45.649Z,18.80
2023-02-12T08:01:14.781Z,17.13
2023-02-12T08:03:42.706Z,18.33
2023-02-12T08:06:10.968Z,21.73
2023-02-12T08:08:39.006Z,19.98
2023-02-12T08:11:07.843Z,21.40
2023-02-12T08:13:38.082Z,33.30
2023-02-12T08:16:06.819Z,18.60
2023-02-12T08:18:34.789Z,19.13
2023-02-12T08:21:03.691Z,23.48
2023-02-12T08:23:31.606Z,19.77
2023-02-12T08:26:09.701Z,17.48
2023-02-12T08:28:39.762Z,18.65
2023-02-12T08:31:09.354Z,21.63
2023-02-12T08:33:37.134Z,18.90
2023-02-12T08:36:06.328Z,23.13
2023-02-12T08:38:34.597Z,24.00
2023-02-12T08:41:03.619Z,23.77
2023-02-12T08:43:31.485Z,19.83
2023-02-12T08:46:04.188Z,19.73
2023-02-12T08:48:31.945Z,22.58
2023-02-12T08:51:04.985Z,22.67
2023-02-12T08:53:33.404Z,22.83
2023-02-12T08:56:01.245Z,19.10
2023-02-12T08:58:28.873Z,20.00
2023-02-12T09:00:56.571Z,16.63
2023-02-12T09:03:29.422Z,19.73
2023-02-12T09:05:58.078Z,24.73
2023-02-12T09:08:25.943Z,23.50
2023-02-12T09:10:53.634Z,22.92
2023-02-12T09:13:21.294Z,20.35
2023-02-12T09:15:48.940Z,21.73
2023-02-12T09:18:16.863Z,26.70
2023-02-12T09:20:46.208Z,32.70
2023-02-12T09:23:14.761Z,22.85
2023-02-12T09:25:43.312Z,24.33
2023-02-12T09:28:11.347Z,20.98
2023-02-12T09:30:39.414Z,24.15
2023-02-12T09:33:08.106Z,25.60
2023-02-12T09:35:36.310Z,23.45
2023-02-12T09:38:05.648Z,26.50
2023-02-12T09:40:37.052Z,22.92
2023-02-12T09:43:07.810Z,27.33
2023-02-12T09:45:37.667Z,23.00
2023-02-12T09:48:08.779Z,21.15
2023-02-12T09:50:42.394Z,25.63
2023-02-12T09:53:13.595Z,24.63
2023-02-12T09:55:41.448Z,25.27
2023-02-12T09:58:13.176Z,26.52
2023-02-12T10:00:40.845Z,23.80
2023-02-12T10:03:13.825Z,27.75
2023-02-12T10:05:43.992Z,26.33
2023-02-12T10:08:24.593Z,22.35
2023-02-12T10:10:54.260Z,23.50
2023-02-12T10:13:29.665Z,25.45
2023-02-12T10:16:02.320Z,27.08
2023-02-12T10:18:38.269Z,19.65
2023-02-12T10:21:11.564Z,28.27
2023-02-12T10:23:47.208Z,24.73
2023-02-12T10:26:19.209Z,25.80
2023-02-12T10:28:47.041Z,28.00
2023-02-12T10:31:17.655Z,25.35
2023-02-12T10:33:46.513Z,29.95
2023-02-12T10:36:19.741Z,26.80
2023-02-12T10:38:51.760Z,25.23
2023-02-12T10:41:19.560Z,23.98
2023-02-12T10:43:47.268Z,25.58
2023-02-12T10:46:16.339Z,27.98
2023-02-12T10:48:45.697Z,28.70
2023-02-12T10:51:23.295Z,28.48
2023-02-12T10:53:53.033Z,23.92
2023-02-12T10:56:23.070Z,29.88
2023-02-12T10:58:55.700Z,22.30
2023-02-12T11:01:26.306Z,22.65
2023-02-12T11:03:54.196Z,23.70
2023-02-12T11:06:23.196Z,26.05
2023-02-12T11:08:51.096Z,37.30
2023-02-12T11:11:21.336Z,27.40
2023-02-12T11:13:54.652Z,21.88
2023-02-12T11:16:32.938Z,26.05
2023-02-12T11:19:01.925Z,22.23
2023-02-12T11:21:30.134Z,17.83
2023-02-12T11:23:58.109Z,19.33
2023-02-12T11:26:29.257Z,23.00
2023-02-12T11:28:58.597Z,24.10
2023-02-12T11:31:27.391Z,21.55
2023-02-12T11:34:09.172Z,21.70
2023-02-12T11:36:37.919Z,22.10
2023-02-12T11:39:07.807Z,23.63
2023-02-12T11:41:37.751Z,24.30
2023-02-12T11:44:10.241Z,22.38
2023-02-12T11:46:38.044Z,19.75
2023-02-12T11:49:06.904Z,29.65
2023-02-12T11:51:34.811Z,23.42
2023-02-12T11:54:03.594Z,20.60
2023-02-12T11:56:43.448Z,23.95
2023-02-12T11:59:13.999Z,24.13
2023-02-12T12:01:43.243Z,26.73
2023-02-12T12:04:12.482Z,26.65
2023-02-12T12:06:42.382Z,21.20
2023-02-12T12:09:14.620Z,27.50
2023-02-12T12:11:49.179Z,24.75
2023-02-12T12:14:19.406Z,30.03
2023-02-12T12:17:07.963Z,19.33
2023-02-12T12:19:52.596Z,23.38
2023-02-12T12:22:24.741Z,24.70
2023-02-12T12:24:57.266Z,22.73
2023-02-12T12:27:46.573Z,25.08
2023-02-12T12:30:19.673Z,23.08
2023-02-12T12:32:48.481Z,23.52
2023-02-12T12:35:18.148Z,22.42
2023-02-12T12:37:49.509Z,24.15
2023-02-12T12:40:27.185Z,25.52
2023-02-12T12:43:02.416Z,22.35
2023-02-12T12:45:35.832Z,26.90
2023-02-12T12:48:11.411Z,29.15
2023-02-12T12:50:46.454Z,25.75
2023-02-12T12:53:21.796Z,22.90
2023-02-12T12:58:24.278Z,24.02
2023-02-12T13:01:06.849Z,24.02
2023-02-12T13:03:49.547Z,23.52
2023-02-12T13:06:35.891Z,24.92
2023-02-12T13:09:20.137Z,22.35
2023-02-12T13:11:53.429Z,21.90
2023-02-12T13:14:28.724Z,29.52
2023-02-12T13:16:59.071Z,28.52
2023-02-12T13:19:33.900Z,26.13
2023-02-12T13:22:07.918Z,19.00
2023-02-12T13:24:39.312Z,19.92
2023-02-12T13:27:08.778Z,22.55
2023-02-12T13:29:40.026Z,21.05
2023-02-12T13:32:13.168Z,23.77
2023-02-12T13:34:43.549Z,20.20
2023-02-12T13:37:14.550Z,18.98
2023-02-12T13:39:44.825Z,20.63
2023-02-12T13:42:18.116Z,19.08
2023-02-12T13:44:51.041Z,18.73
2023-02-12T13:47:22.654Z,16.58
2023-02-12T13:49:53.752Z,17.65
2023-02-12T13:52:26.747Z,14.85
2023-02-12T13:55:06.641Z,19.52
2023-02-12T13:57:34.340Z,21.70
2023-02-12T14:00:08.362Z,22.30
2023-02-12T14:02:46.044Z,21.88
2023-02-12T14:05:31.753Z,18.77
2023-02-12T14:08:01.917Z,20.05
2023-02-12T14:10:31.390Z,18.65
2023-02-12T14:13:10.829Z,21.90
2023-02-12T14:15:44.595Z,22.40
2023-02-12T14:18:33.102Z,24.77
2023-02-12T14:21:19.481Z,21.10
2023-02-12T14:23:47.320Z,20.25
2023-02-12T14:26:16.370Z,17.73
2023-02-12T14:28:48.317Z,22.50
2023-02-12T14:31:23.800Z,19.67
2023-02-12T14:33:52.417Z,22.52
2023-02-12T14:36:21.469Z,18.58
2023-02-12T14:38:59.456Z,18.02
2023-02-12T14:41:41.796Z,24.20
2023-02-12T14:44:42.711Z,19.73
2023-02-12T14:47:17.356Z,18.50
2023-02-12T14:49:47.491Z,22.40
2023-02-12T14:52:19.689Z,20.20
2023-02-12T14:54:49.887Z,25.00
2023-02-12T14:57:24.088Z,24.13
2023-02-12T14:59:53.380Z,22.17
2023-02-12T15:02:34.020Z,21.20
2023-02-12T15:05:03.459Z,22.63
2023-02-12T15:07:33.153Z,19.33
2023-02-12T15:10:10.712Z,17.63
2023-02-12T15:12:39.416Z,21.45
2023-02-12T15:15:12.421Z,26.33
2023-02-12T15:17:42.130Z,20.48
2023-02-12T15:20:15.055Z,20.80
2023-02-12T15:22:43.514Z,25.05
2023-02-12T15:25:18.369Z,26.33
2023-02-12T15:27:47.703Z,21.98
2023-02-12T15:30:25.566Z,20.83
2023-02-12T15:32:57.032Z,22.17
2023-02-12T15:35:26.545Z,19.15
2023-02-12T15:37:54.437Z,22.02
2023-02-12T15:40:22.270Z,21.90
2023-02-12T15:42:54.022Z,21.90
2023-02-12T15:45:24.913Z,20.60
2023-02-12T15:48:02.872Z,18.45
2023-02-12T15:50:31.800Z,17.42
2023-02-12T15:52:59.931Z,25.48
2023-02-12T15:55:30.532Z,23.38
2023-02-12T15:57:59.086Z,21.63
2023-02-12T16:00:30.475Z,20.00
2023-02-12T16:02:58.221Z,19.15
2023-02-12T16:05:27.908Z,20.38
2023-02-12T16:07:56.038Z,22.05
2023-02-12T16:10:23.896Z,22.95
2023-02-12T16:12:52.596Z,23.38
2023-02-12T16:15:28.525Z,18.48
2023-02-12T16:17:57.187Z,21.85
2023-02-12T16:20:27.362Z,17.90
2023-02-12T16:22:56.908Z,23.27
2023-02-12T16:25:26.455Z,17.83
2023-02-12T16:27:57.435Z,22.98
2023-02-12T16:30:27.297Z,24.73
2023-02-12T16:32:55.264Z,22.58
2023-02-12T16:35:30.040Z,23.13
2023-02-12T16:38:03.942Z,18.25
2023-02-12T16:40:36.365Z,18.70
2023-02-12T16:43:07.912Z,28.40
2023-02-12T16:45:44.935Z,28.13
2023-02-12T16:48:17.808Z,18.15
2023-02-12T16:50:48.142Z,18.23
2023-02-12T16:53:43.071Z,25.13
2023-02-12T16:56:15.561Z,26.55
2023-02-12T16:58:43.407Z,22.00
2023-02-12T17:01:16.161Z,24.20
2023-02-12T17:03:44.827Z,22.52
2023-02-12T17:06:12.698Z,26.67
2023-02-12T17:08:41.885Z,27.33
2023-02-12T17:11:10.921Z,25.45
2023-02-12T17:13:38.752Z,26.38
2023-02-12T17:16:06.669Z,17.80
2023-02-12T17:18:36.037Z,22.10
2023-02-12T17:21:05.256Z,28.95
2023-02-12T17:23:33.468Z,22.10
2023-02-12T17:26:02.855Z,22.25
2023-02-12T17:28:31.965Z,21.88
2023-02-12T17:31:02.639Z,23.27
2023-02-12T17:33:30.491Z,21.65
2023-02-12T17:35:59.397Z,25.13
2023-02-12T17:38:27.105Z,30.20
2023-02-12T17:40:56.174Z,22.35
2023-02-12T17:43:25.511Z,47.75
2023-02-12T17:45:53.987Z,51.60
2023-02-12T17:48:23.490Z,33.47
2023-02-12T17:50:54.770Z,29.77
2023-02-12T17:53:22.635Z,26.77
2023-02-12T17:55:50.375Z,23.83
2023-02-12T17:58:18.177Z,25.33
2023-02-12T18:00:47.294Z,22.08
2023-02-12T18:03:14.965Z,25.38
2023-02-12T18:05:43.391Z,29.45
2023-02-12T18:08:11.375Z,24.05
2023-02-12T18:10:40.714Z,24.92
2023-02-12T18:13:09.850Z,26.73
2023-02-12T18:15:38.106Z,32.92
2023-02-12T18:18:07.195Z,29.15
2023-02-12T18:20:34.905Z,33.55
2023-02-12T18:23:03.446Z,27.70
2023-02-12T18:25:31.306Z,25.95
2023-02-12T18:28:01.340Z,30.90
2023-02-12T18:30:29.355Z,28.77
2023-02-12T18:32:57.135Z,33.60
2023-02-12T18:35:26.206Z,23.95
2023-02-12T18:37:54.074Z,34.78
2023-02-12T18:40:21.799Z,34.72
2023-02-12T18:42:49.511Z,35.53
2023-02-12T18:45:19.415Z,28.02
2023-02-12T18:47:47.898Z,30.92
2023-02-12T18:50:15.619Z,31.58
2023-02-12T18:52:44.791Z,23.20
2023-02-12T18:55:13.207Z,26.73
2023-02-12T18:57:40.865Z,25.75
2023-02-12T19:00:09.706Z,36.58
2023-02-12T19:02:37.374Z,28.17
2023-02-12T19:05:05.348Z,30.52
2023-02-12T19:07:33.040Z,34.00
2023-02-12T19:10:02.205Z,35.65
2023-02-12T19:12:30.075Z,27.45
2023-02-12T19:14:57.743Z,31.83
2023-02-12T19:17:25.604Z,32.53
2023-02-12T19:19:53.280Z,30.70
2023-02-12T19:22:21.029Z,28.92
2023-02-12T19:24:50.781Z,35.97
2023-02-12T19:27:25.089Z,29.52
2023-02-12T19:29:52.865Z,30.95
2023-02-12T19:32:20.491Z,32.90
2023-02-12T19:34:48.397Z,28.35
2023-02-12T19:37:16.381Z,35.10
2023-02-12T19:39:44.207Z,35.72
2023-02-12T19:42:14.737Z,33.28
2023-02-12T19:44:44.552Z,33.75
2023-02-12T19:47:12.232Z,35.63
2023-02-12T19:49:40.120Z,35.15
2023-02-12T19:52:08.101Z,31.63
2023-02-12T19:54:36.598Z,32.53
2023-02-12T19:57:09.215Z,32.47
2023-02-12T19:59:37.415Z,35.20
2023-02-12T20:02:06.518Z,34.05
2023-02-12T20:04:34.201Z,31.13
2023-02-12T20:07:02.106Z,34.38
2023-02-12T20:09:29.960Z,34.97
2023-02-12T20:11:58.108Z,35.38
2023-02-12T20:14:26.175Z,37.38
2023-02-12T20:16:55.383Z,34.33
2023-02-12T20:19:25.407Z,34.08
2023-02-12T20:21:55.136Z,38.33
2023-02-12T20:24:23.260Z,35.88
2023-02-12T20:26:51.202Z,32.20
2023-02-12T20:29:18.886Z,35.17
2023-02-12T20:31:46.810Z,37.38
2023-02-12T20:34:18.248Z,34.78
2023-02-12T20:36:47.952Z,32.75
2023-02-12T20:39:18.080Z,32.90
2023-02-12T20:41:45.992Z,39.47
2023-02-12T20:44:15.880Z,32.83
2023-02-12T20:46:45.336Z,33.72
2023-02-12T20:49:13.900Z,29.45
2023-02-12T20:51:41.879Z,41.30
2023-02-12T20:54:11.421Z,34.25
2023-02-12T20:56:39.354Z,39.55
2023-02-12T20:59:07.519Z,39.47
2023-02-12T21:01:36.561Z,36.97
2023-02-12T21:04:05.646Z,36.28
2023-02-12T21:06:33.357Z,37.63
2023-02-12T21:09:01.354Z,44.53
2023-02-12T21:11:34.245Z,38.63
2023-02-12T21:14:20.731Z,33.70
2023-02-12T21:16:50.200Z,31.20
2023-02-12T21:19:18.892Z,33.35
2023-02-12T21:21:47.075Z,33.13
2023-02-12T21:24:16.562Z,38.00
2023-02-12T21:26:46.112Z,36.33
2023-02-12T21:29:13.822Z,31.08
2023-02-12T21:31:42.709Z,33.70
2023-02-12T21:34:12.569Z,43.90
2023-02-12T21:36:41.819Z,39.55
2023-02-12T21:39:11.040Z,34.75
2023-02-12T21:41:40.112Z,32.65
2023-02-12T21:44:09.996Z,36.25
2023-02-12T21:46:38.610Z,36.92
2023-02-12T21:49:06.439Z,38.17
2023-02-12T21:51:35.395Z,31.52
2023-02-12T21:54:04.697Z,35.00
2023-02-12T21:56:32.710Z,38.88
2023-02-12T21:59:00.704Z,37.83
2023-02-12T22:01:32.307Z,39.50
2023-02-12T22:04:01.593Z,70.57
2023-02-12T22:06:29.319Z,39.13
2023-02-12T22:08:57.779Z,38.58
2023-02-12T22:11:25.459Z,37.92
2023-02-12T22:13:53.430Z,43.85
2023-02-12T22:16:22.308Z,45.45
2023-02-12T22:18:52.726Z,41.42
2023-02-12T22:21:20.418Z,40.75
2023-02-12T22:23:48.280Z,37.63
2023-02-12T22:26:16.999Z,36.47
2023-02-12T22:28:47.855Z,37.50
2023-02-12T22:31:19.483Z,45.40
2023-02-12T22:33:47.365Z,32.30
2023-02-12T22:36:17.902Z,39.47
2023-02-12T22:38:45.764Z,37.60
2023-02-12T22:41:13.421Z,44.20
2023-02-12T22:43:41.517Z,40.58
2023-02-12T22:46:10.039Z,36.80
2023-02-12T22:48:37.823Z,40.10
2023-02-12T22:51:09.139Z,42.60
2023-02-12T22:53:38.285Z,44.45
2023-02-12T22:56:08.363Z,43.95
2023-02-12T22:58:37.024Z,37.22
2023-02-12T23:01:08.854Z,36.78
2023-02-12T23:03:37.640Z,41.95
2023-02-12T23:06:09.380Z,40.28
2023-02-12T23:08:38.525Z,35.00
2023-02-12T23:11:08.338Z,42.03
2023-02-12T23:13:36.685Z,38.40
2023-02-12T23:16:04.939Z,36.97
2023-02-12T23:18:35.462Z,40.17
2023-02-12T23:21:05.450Z,47.63
2023-02-12T23:23:33.269Z,41.35
2023-02-12T23:26:02.735Z,35.17
2023-02-12T23:28:33.057Z,39.33
2023-02-12T23:31:01.315Z,41.47
2023-02-12T23:33:29.488Z,39.65
2023-02-12T23:35:57.587Z,48.70
2023-02-12T23:38:25.275Z,40.00
2023-02-12T23:40:53.072Z,42.28
2023-02-12T23:43:24.146Z,42.05
2023-02-12T23:45:51.900Z,46.60
2023-02-12T23:48:19.769Z,45.63
2023-02-12T23:50:49.896Z,39.72
2023-02-12T23:53:19.216Z,46.75
2023-02-12T23:55:46.881Z,50.88
2023-02-12T23:58:14.592Z,43.55
